Terminal Aerodrome Forecast
Issued by NWS Wilmington, OH

Current Version | Previous Version | Graphics & Text | Print | Product List | Glossary On
Versions: 1 2 3 4 5 6 7 8 9 10 11 12 13 14 15 16 17 18 19 20
727
FTUS41 KILN 151137
TAFILN
TAF
KILN 151137Z 1512/1612 22005KT P6SM SCT040 OVC120
     FM151300 24011KT P6SM OVC040
     FM151700 26015G25KT P6SM BKN025 OVC040
     FM152300 25010KT P6SM OVC040
     FM160300 23011KT P6SM BKN050 OVC100=

USA.gov is the U.S. government's official web portal to all federal, state and local government web resources and services.